Lansing, Illinois
Current Conditions -  °F | °C
As of 3:15 PM on Monday 22 Dec 2014 (Local Time) from KIGQ Reporting Station
Moderate Rain Moderate Rain  
Wind Chill: 31°   Ceiling: 600
Heat Index: 38°   Visibility: 2mi
Dew Point: 37°   Wind: 12mph
Humidity: 95%   Direction: 130°SE
Pressure: 29.72"   Gusts: NA
Location:  41.56°N, 87.54°W
Report Text: KIGQ 222115Z AUTO 13010KT 2SM RA OVC006 04/03 A2972 RMK AO2 P0003 T00350028
Loading
Personal Weather Stations






























Interactive Weather Map New forecast layout! Learn more

10-Day Weather Forecast

Advertisements
Track Severe Weather on mobile